sensor_id;sensor_type;location;lat;lon;timestamp;pressure;altitude;pressure_sealevel;temperature;humidity
23241;BME280;11789;53.482;9.862;2023-07-20T00:01:30;101273.91;;;13.63;100.00
23241;BME280;11789;53.482;9.862;2023-07-20T00:03:56;101269.59;;;13.64;100.00
23241;BME280;11789;53.482;9.862;2023-07-20T00:06:22;101269.59;;;13.64;100.00
23241;BME280;11789;53.482;9.862;2023-07-20T00:08:47;101268.72;;;13.65;100.00
23241;BME280;11789;53.482;9.862;2023-07-20T00:11:13;101269.62;;;13.59;100.00
23241;BME280;11789;53.482;9.862;2023-07-20T00:13:39;101272.22;;;13.59;100.00
23241;BME280;11789;53.482;9.862;2023-07-20T00:16:05;101277.41;;;13.59;100.00
23241;BME280;11789;53.482;9.862;2023-07-20T00:18:31;101273.94;;;13.60;100.00
23241;BME280;11789;53.482;9.862;2023-07-20T00:20:56;101282.59;;;13.64;100.00
23241;BME280;11789;53.482;9.862;2023-07-20T00:23:22;101274.78;;;13.64;100.00
23241;BME280;11789;53.482;9.862;2023-07-20T00:25:48;101272.16;;;13.65;100.00
23241;BME280;11789;53.482;9.862;2023-07-20T00:28:14;101268.69;;;13.63;100.00
23241;BME280;11789;53.482;9.862;2023-07-20T00:30:40;101270.47;;;13.60;100.00
23241;BME280;11789;53.482;9.862;2023-07-20T00:33:09;101270.44;;;13.64;100.00
23241;BME280;11789;53.482;9.862;2023-07-20T00:35:35;101278.22;;;13.69;100.00
23241;BME280;11789;53.482;9.862;2023-07-20T00:38:00;101282.53;;;13.70;100.00
23241;BME280;11789;53.482;9.862;2023-07-20T00:40:26;101275.56;;;13.72;100.00
23241;BME280;11789;53.482;9.862;2023-07-20T00:42:52;101285.13;;;13.70;100.00
23241;BME280;11789;53.482;9.862;2023-07-20T00:45:17;101282.50;;;13.74;100.00
23241;BME280;11789;53.482;9.862;2023-07-20T00:47:43;101281.63;;;13.72;100.00
23241;BME280;11789;53.482;9.862;2023-07-20T00:50:09;101280.78;;;13.70;100.00
23241;BME280;11789;53.482;9.862;2023-07-20T00:52:37;101272.13;;;13.74;100.00
23241;BME280;11789;53.482;9.862;2023-07-20T00:55:05;101278.97;;;13.79;100.00
23241;BME280;11789;53.482;9.862;2023-07-20T00:57:31;101274.63;;;13.85;100.00
23241;BME280;11789;53.482;9.862;2023-07-20T00:59:57;101281.53;;;13.88;100.00
23241;BME280;11789;53.482;9.862;2023-07-20T01:02:22;101272.00;;;13.87;100.00
23241;BME280;11789;53.482;9.862;2023-07-20T01:04:48;101269.41;;;13.90;100.00
23241;BME280;11789;53.482;9.862;2023-07-20T01:07:19;101276.34;;;13.89;100.00
23241;BME280;11789;53.482;9.862;2023-07-20T01:10:10;101277.16;;;13.93;100.00
23241;BME280;11789;53.482;9.862;2023-07-20T01:12:47;101276.28;;;13.95;100.00
23241;BME280;11789;53.482;9.862;2023-07-20T01:15:13;101276.28;;;13.92;100.00
23241;BME280;11789;53.482;9.862;2023-07-20T01:17:38;101271.13;;;13.88;100.00
23241;BME280;11789;53.482;9.862;2023-07-20T01:20:06;101276.34;;;13.86;100.00
23241;BME280;11789;53.482;9.862;2023-07-20T01:22:53;101275.44;;;13.89;100.00
23241;BME280;11789;53.482;9.862;2023-07-20T01:31:24;101270.31;;;13.81;100.00
23241;BME280;11789;53.482;9.862;2023-07-20T01:33:56;101276.41;;;13.77;100.00
23241;BME280;11789;53.482;9.862;2023-07-20T01:36:24;101275.53;;;13.76;100.00
23241;BME280;11789;53.482;9.862;2023-07-20T01:38:52;101265.16;;;13.73;100.00
23241;BME280;11789;53.482;9.862;2023-07-20T01:41:18;101267.81;;;13.70;100.00
23241;BME280;11789;53.482;9.862;2023-07-20T01:43:44;101273.03;;;13.66;100.00
23241;BME280;11789;53.482;9.862;2023-07-20T01:46:09;101268.69;;;13.63;100.00
23241;BME280;11789;53.482;9.862;2023-07-20T01:48:35;101264.41;;;13.64;100.00
23241;BME280;11789;53.482;9.862;2023-07-20T01:51:00;101261.78;;;13.62;100.00
23241;BME280;11789;53.482;9.862;2023-07-20T01:53:25;101261.78;;;13.62;100.00
23241;BME280;11789;53.482;9.862;2023-07-20T01:55:54;101259.19;;;13.62;100.00
23241;BME280;11789;53.482;9.862;2023-07-20T01:58:20;101261.81;;;13.58;100.00
23241;BME280;11789;53.482;9.862;2023-07-20T02:00:45;101262.72;;;13.55;100.00
23241;BME280;11789;53.482;9.862;2023-07-20T02:03:11;101251.44;;;13.56;100.00
23241;BME280;11789;53.482;9.862;2023-07-20T02:05:37;101265.31;;;13.55;100.00
23241;BME280;11789;53.482;9.862;2023-07-20T02:08:03;101258.41;;;13.54;100.00
23241;BME280;11789;53.482;9.862;2023-07-20T02:10:28;101260.09;;;13.57;100.00
23241;BME280;11789;53.482;9.862;2023-07-20T02:12:54;101264.37;;;13.62;100.00
23241;BME280;11789;53.482;9.862;2023-07-20T02:15:20;101275.66;;;13.64;100.00
23241;BME280;11789;53.482;9.862;2023-07-20T02:17:46;101280.00;;;13.61;100.00
23241;BME280;11789;53.482;9.862;2023-07-20T02:20:12;101270.47;;;13.58;100.00
23241;BME280;11789;53.482;9.862;2023-07-20T02:22:38;101273.06;;;13.58;100.00
23241;BME280;11789;53.482;9.862;2023-07-20T02:25:05;101272.22;;;13.59;100.00
23241;BME280;11789;53.482;9.862;2023-07-20T02:27:35;101273.09;;;13.55;100.00
23241;BME280;11789;53.482;9.862;2023-07-20T02:30:01;101271.37;;;13.54;100.00
23241;BME280;11789;53.482;9.862;2023-07-20T02:32:28;101277.44;;;13.53;100.00
23241;BME280;11789;53.482;9.862;2023-07-20T02:34:53;101266.19;;;13.51;100.00
23241;BME280;11789;53.482;9.862;2023-07-20T02:37:19;101264.50;;;13.48;100.00
23241;BME280;11789;53.482;9.862;2023-07-20T02:39:44;101265.34;;;13.47;100.00
23241;BME280;11789;53.482;9.862;2023-07-20T02:42:38;101267.09;;;13.45;100.00
23241;BME280;11789;53.482;9.862;2023-07-20T02:45:04;101261.88;;;13.47;100.00
23241;BME280;11789;53.482;9.862;2023-07-20T02:47:30;101272.31;;;13.44;100.00
23241;BME280;11789;53.482;9.862;2023-07-20T02:49:56;101271.41;;;13.48;100.00
23241;BME280;11789;53.482;9.862;2023-07-20T02:52:22;101268.78;;;13.51;100.00
23241;BME280;11789;53.482;9.862;2023-07-20T02:54:48;101275.72;;;13.54;100.00
23241;BME280;11789;53.482;9.862;2023-07-20T02:57:14;101270.50;;;13.52;100.00
23241;BME280;11789;53.482;9.862;2023-07-20T02:59:39;101274.84;;;13.55;100.00
23241;BME280;11789;53.482;9.862;2023-07-20T03:02:05;101280.91;;;13.55;100.00
23241;BME280;11789;53.482;9.862;2023-07-20T03:04:30;101281.78;;;13.54;100.00
23241;BME280;11789;53.482;9.862;2023-07-20T03:06:56;101276.56;;;13.53;100.00
23241;BME280;11789;53.482;9.862;2023-07-20T03:09:21;101278.38;;;13.44;100.00
23241;BME280;11789;53.482;9.862;2023-07-20T03:11:47;101283.53;;;13.46;100.00
23241;BME280;11789;53.482;9.862;2023-07-20T03:14:12;101287.00;;;13.46;100.00
23241;BME280;11789;53.482;9.862;2023-07-20T03:16:38;101282.66;;;13.47;100.00
23241;BME280;11789;53.482;9.862;2023-07-20T03:19:03;101287.84;;;13.47;100.00
23241;BME280;11789;53.482;9.862;2023-07-20T03:21:30;101286.16;;;13.43;100.00
23241;BME280;11789;53.482;9.862;2023-07-20T03:23:55;101287.03;;;13.42;100.00
23241;BME280;11789;53.482;9.862;2023-07-20T03:26:21;101281.00;;;13.38;100.00
23241;BME280;11789;53.482;9.862;2023-07-20T03:28:46;101285.31;;;13.39;100.00
23241;BME280;11789;53.482;9.862;2023-07-20T03:31:11;101288.75;;;13.44;100.00
23241;BME280;11789;53.482;9.862;2023-07-20T03:33:37;101293.94;;;13.49;100.00
23241;BME280;11789;53.482;9.862;2023-07-20T03:36:02;101287.87;;;13.48;100.00
23241;BME280;11789;53.482;9.862;2023-07-20T03:38:28;101291.34;;;13.49;100.00
23241;BME280;11789;53.482;9.862;2023-07-20T03:40:56;101293.91;;;13.50;100.00
23241;BME280;11789;53.482;9.862;2023-07-20T03:43:22;101291.28;;;13.55;100.00
23241;BME280;11789;53.482;9.862;2023-07-20T03:45:49;101289.59;;;13.48;100.00
23241;BME280;11789;53.482;9.862;2023-07-20T03:48:20;101291.34;;;13.44;100.00
23241;BME280;11789;53.482;9.862;2023-07-20T03:50:47;101290.50;;;13.44;100.00
23241;BME280;11789;53.482;9.862;2023-07-20T03:53:14;101291.34;;;13.44;100.00
23241;BME280;11789;53.482;9.862;2023-07-20T03:55:47;101290.47;;;13.48;100.00
23241;BME280;11789;53.482;9.862;2023-07-20T03:58:13;101291.34;;;13.49;100.00
23241;BME280;11789;53.482;9.862;2023-07-20T04:00:39;101291.34;;;13.46;100.00
23241;BME280;11789;53.482;9.862;2023-07-20T04:03:05;101297.41;;;13.45;100.00
23241;BME280;11789;53.482;9.862;2023-07-20T04:05:31;101297.41;;;13.42;100.00
23241;BME280;11789;53.482;9.862;2023-07-20T04:07:56;101298.28;;;13.41;100.00
23241;BME280;11789;53.482;9.862;2023-07-20T04:10:22;101301.72;;;13.43;100.00
23241;BME280;11789;53.482;9.862;2023-07-20T04:12:47;101289.62;;;13.42;100.00
23241;BME280;11789;53.482;9.862;2023-07-20T04:15:14;101292.22;;;13.42;100.00
23241;BME280;11789;53.482;9.862;2023-07-20T04:17:40;101289.62;;;13.42;100.00
23241;BME280;11789;53.482;9.862;2023-07-20T04:20:06;101293.09;;;13.44;100.00
23241;BME280;11789;53.482;9.862;2023-07-20T04:22:32;101298.25;;;13.47;100.00
23241;BME280;11789;53.482;9.862;2023-07-20T04:24:57;101297.38;;;13.51;100.00
23241;BME280;11789;53.482;9.862;2023-07-20T04:27:23;101299.97;;;13.48;100.00
23241;BME280;11789;53.482;9.862;2023-07-20T04:29:48;101305.19;;;13.45;100.00
23241;BME280;11789;53.482;9.862;2023-07-20T04:32:14;101310.34;;;13.51;100.00
23241;BME280;11789;53.482;9.862;2023-07-20T04:34:39;101311.22;;;13.50;100.00
23241;BME280;11789;53.482;9.862;2023-07-20T04:37:04;101312.13;;;13.49;100.00
23241;BME280;11789;53.482;9.862;2023-07-20T04:39:30;101312.94;;;13.53;100.00
23241;BME280;11789;53.482;9.862;2023-07-20T04:41:56;101314.66;;;13.55;100.00
23241;BME280;11789;53.482;9.862;2023-07-20T04:44:22;101318.13;;;13.56;100.00
23241;BME280;11789;53.482;9.862;2023-07-20T04:46:47;101312.03;;;13.60;100.00
23241;BME280;11789;53.482;9.862;2023-07-20T04:49:13;101305.03;;;13.71;100.00
23241;BME280;11789;53.482;9.862;2023-07-20T04:51:38;101311.94;;;13.76;100.00
23241;BME280;11789;53.482;9.862;2023-07-20T04:54:04;101300.63;;;13.85;100.00
23241;BME280;11789;53.482;9.862;2023-07-20T04:56:29;101301.44;;;13.87;100.00
23241;BME280;11789;53.482;9.862;2023-07-20T04:58:55;101301.44;;;13.87;100.00
23241;BME280;11789;53.482;9.862;2023-07-20T05:01:20;101306.66;;;13.86;100.00
23241;BME280;11789;53.482;9.862;2023-07-20T05:03:46;101310.12;;;13.89;100.00
23241;BME280;11789;53.482;9.862;2023-07-20T05:06:11;101313.59;;;13.87;100.00
23241;BME280;11789;53.482;9.862;2023-07-20T05:08:37;101310.09;;;13.91;100.00
23241;BME280;11789;53.482;9.862;2023-07-20T05:11:04;101310.00;;;14.03;100.00
23241;BME280;11789;53.482;9.862;2023-07-20T05:13:29;101316.00;;;14.11;100.00
23241;BME280;11789;53.482;9.862;2023-07-20T05:15:55;101310.75;;;14.17;100.00
23241;BME280;11789;53.482;9.862;2023-07-20T05:18:20;101306.34;;;14.24;100.00
23241;BME280;11789;53.482;9.862;2023-07-20T05:20:47;101316.69;;;14.32;100.00
23241;BME280;11789;53.482;9.862;2023-07-20T05:23:13;101311.44;;;14.38;100.00
23241;BME280;11789;53.482;9.862;2023-07-20T05:25:38;101313.16;;;14.40;100.00
23241;BME280;11789;53.482;9.862;2023-07-20T05:28:04;101304.41;;;14.49;100.00
23241;BME280;11789;53.482;9.862;2023-07-20T05:30:29;101307.84;;;14.54;100.00
23241;BME280;11789;53.482;9.862;2023-07-20T05:32:54;101311.25;;;14.59;100.00
23241;BME280;11789;53.482;9.862;2023-07-20T05:35:20;101315.53;;;14.65;100.00
23241;BME280;11789;53.482;9.862;2023-07-20T05:37:46;101308.53;;;14.70;100.00
23241;BME280;11789;53.482;9.862;2023-07-20T05:40:12;101308.53;;;14.71;100.00
23241;BME280;11789;53.482;9.862;2023-07-20T05:42:38;101299.81;;;14.75;100.00
23241;BME280;11789;53.482;9.862;2023-07-20T05:45:05;101311.00;;;14.85;100.00
23241;BME280;11789;53.482;9.862;2023-07-20T05:47:30;101310.91;;;14.90;100.00
23241;BME280;11789;53.482;9.862;2023-07-20T05:49:56;101307.41;;;14.94;100.00
23241;BME280;11789;53.482;9.862;2023-07-20T05:52:21;101311.72;;;14.96;100.00
23241;BME280;11789;53.482;9.862;2023-07-20T05:54:47;101317.75;;;15.01;100.00
23241;BME280;11789;53.482;9.862;2023-07-20T05:57:12;101311.63;;;15.05;100.00
23241;BME280;11789;53.482;9.862;2023-07-20T05:59:38;101312.44;;;15.09;100.00
23241;BME280;11789;53.482;9.862;2023-07-20T06:02:06;101307.22;;;15.11;100.00
23241;BME280;11789;53.482;9.862;2023-07-20T06:04:33;101310.66;;;15.13;100.00
23241;BME280;11789;53.482;9.862;2023-07-20T06:06:58;101317.56;;;15.15;100.00
23241;BME280;11789;53.482;9.862;2023-07-20T06:09:24;101320.16;;;15.17;100.00
23241;BME280;11789;53.482;9.862;2023-07-20T06:11:49;101322.72;;;15.20;100.00
23241;BME280;11789;53.482;9.862;2023-07-20T06:14:15;101323.53;;;15.26;100.00
23241;BME280;11789;53.482;9.862;2023-07-20T06:16:41;101317.38;;;15.30;100.00
23241;BME280;11789;53.482;9.862;2023-07-20T06:19:06;101323.44;;;15.32;100.00
23241;BME280;11789;53.482;9.862;2023-07-20T06:21:31;101324.25;;;15.35;100.00
23241;BME280;11789;53.482;9.862;2023-07-20T06:23:57;101326.84;;;15.38;100.00
23241;BME280;11789;53.482;9.862;2023-07-20T06:26:24;101329.38;;;15.41;100.00
23241;BME280;11789;53.482;9.862;2023-07-20T06:28:49;101331.16;;;15.39;100.00
23241;BME280;11789;53.482;9.862;2023-07-20T06:31:14;101334.66;;;15.38;100.00
23241;BME280;11789;53.482;9.862;2023-07-20T06:33:40;101335.50;;;15.41;100.00
23241;BME280;11789;53.482;9.862;2023-07-20T06:36:05;101329.38;;;15.41;100.00
23241;BME280;11789;53.482;9.862;2023-07-20T06:38:31;101335.50;;;15.41;100.00
23241;BME280;11789;53.482;9.862;2023-07-20T06:40:56;101324.16;;;15.44;100.00
23241;BME280;11789;53.482;9.862;2023-07-20T06:43:22;101331.03;;;15.49;100.00
23241;BME280;11789;53.482;9.862;2023-07-20T06:45:53;101331.00;;;15.51;100.00
23241;BME280;11789;53.482;9.862;2023-07-20T06:48:20;101335.47;;;15.43;100.00
23241;BME280;11789;53.482;9.862;2023-07-20T06:50:45;101330.34;;;15.37;100.00
23241;BME280;11789;53.482;9.862;2023-07-20T06:53:11;101318.09;;;15.43;100.00
23241;BME280;11789;53.482;9.862;2023-07-20T06:55:36;101328.34;;;15.54;100.00
23241;BME280;11789;53.482;9.862;2023-07-20T06:58:02;101328.31;;;15.55;100.00
23241;BME280;11789;53.482;9.862;2023-07-20T07:00:28;101324.03;;;15.53;100.00
23241;BME280;11789;53.482;9.862;2023-07-20T07:02:53;101327.47;;;15.55;100.00
23241;BME280;11789;53.482;9.862;2023-07-20T07:05:19;101324.81;;;15.58;100.00
23241;BME280;11789;53.482;9.862;2023-07-20T07:07:44;101336.09;;;15.62;100.00
23241;BME280;11789;53.482;9.862;2023-07-20T07:10:10;101330.88;;;15.63;100.00
23241;BME280;11789;53.482;9.862;2023-07-20T07:12:35;101330.06;;;15.56;100.00
23241;BME280;11789;53.482;9.862;2023-07-20T07:15:02;101332.66;;;15.58;100.00
23241;BME280;11789;53.482;9.862;2023-07-20T07:17:27;101331.78;;;15.57;100.00
23241;BME280;11789;53.482;9.862;2023-07-20T07:19:53;101326.50;;;15.61;100.00
23241;BME280;11789;53.482;9.862;2023-07-20T07:22:20;101335.16;;;15.67;100.00
23241;BME280;11789;53.482;9.862;2023-07-20T07:24:47;101329.97;;;15.63;100.00
23241;BME280;11789;53.482;9.862;2023-07-20T07:27:12;101324.75;;;15.66;100.00
23241;BME280;11789;53.482;9.862;2023-07-20T07:29:37;101325.53;;;15.71;100.00
23241;BME280;11789;53.482;9.862;2023-07-20T07:32:03;101329.09;;;15.65;100.00
23241;BME280;11789;53.482;9.862;2023-07-20T07:34:29;101326.44;;;15.68;99.97
23241;BME280;11789;53.482;9.862;2023-07-20T07:36:54;101332.44;;;15.76;100.00
23241;BME280;11789;53.482;9.862;2023-07-20T07:39:19;101331.44;;;15.83;99.97
23241;BME280;11789;53.482;9.862;2023-07-20T07:41:45;101323.59;;;15.87;99.21
23241;BME280;11789;53.482;9.862;2023-07-20T07:44:10;101332.19;;;15.92;97.38
23241;BME280;11789;53.482;9.862;2023-07-20T07:46:36;101332.03;;;16.01;96.63
23241;BME280;11789;53.482;9.862;2023-07-20T07:49:02;101332.00;;;16.04;94.99
23241;BME280;11789;53.482;9.862;2023-07-20T07:51:27;101334.53;;;16.08;93.18
23241;BME280;11789;53.482;9.862;2023-07-20T07:53:54;101334.31;;;16.21;93.16
23241;BME280;11789;53.482;9.862;2023-07-20T07:56:19;101330.75;;;16.28;91.16
23241;BME280;11789;53.482;9.862;2023-07-20T07:58:49;101338.37;;;16.37;92.13
23241;BME280;11789;53.482;9.862;2023-07-20T08:01:14;101331.50;;;16.34;90.77
23241;BME280;11789;53.482;9.862;2023-07-20T08:03:40;101343.75;;;16.29;88.93
23241;BME280;11789;53.482;9.862;2023-07-20T08:06:05;101343.78;;;16.26;90.48
23241;BME280;11789;53.482;9.862;2023-07-20T08:08:32;101342.06;;;16.25;90.07
23241;BME280;11789;53.482;9.862;2023-07-20T08:10:58;101345.56;;;16.24;90.81
23241;BME280;11789;53.482;9.862;2023-07-20T08:13:23;101354.16;;;16.31;90.74
23241;BME280;11789;53.482;9.862;2023-07-20T08:15:51;101344.47;;;16.39;90.45
23241;BME280;11789;53.482;9.862;2023-07-20T08:18:19;101342.75;;;16.38;88.08
23241;BME280;11789;53.482;9.862;2023-07-20T08:20:45;101347.09;;;16.36;88.39
23241;BME280;11789;53.482;9.862;2023-07-20T08:23:12;101341.87;;;16.38;87.19
23241;BME280;11789;53.482;9.862;2023-07-20T08:25:37;101346.22;;;16.39;86.42
23241;BME280;11789;53.482;9.862;2023-07-20T08:28:05;101344.47;;;16.39;86.09
23241;BME280;11789;53.482;9.862;2023-07-20T08:30:49;101351.31;;;16.45;83.96
23241;BME280;11789;53.482;9.862;2023-07-20T08:33:17;101345.16;;;16.49;85.24
23241;BME280;11789;53.482;9.862;2023-07-20T08:35:44;101342.66;;;16.43;84.13
23241;BME280;11789;53.482;9.862;2023-07-20T08:38:09;101347.22;;;16.30;83.75
23241;BME280;11789;53.482;9.862;2023-07-20T08:40:43;101355.19;;;16.22;85.57
23241;BME280;11789;53.482;9.862;2023-07-20T08:43:10;101356.13;;;16.17;86.54
23241;BME280;11789;53.482;9.862;2023-07-20T08:45:38;101354.22;;;16.26;86.36
23241;BME280;11789;53.482;9.862;2023-07-20T08:48:05;101354.03;;;16.39;88.60
23241;BME280;11789;53.482;9.862;2023-07-20T08:50:31;101358.19;;;16.50;87.10
23241;BME280;11789;53.482;9.862;2023-07-20T08:52:59;101359.81;;;16.57;86.36
23241;BME280;11789;53.482;9.862;2023-07-20T08:55:28;101358.84;;;16.63;84.53
23241;BME280;11789;53.482;9.862;2023-07-20T08:57:54;101355.44;;;16.58;81.68
23241;BME280;11789;53.482;9.862;2023-07-20T09:00:21;101354.34;;;16.70;83.21
23241;BME280;11789;53.482;9.862;2023-07-20T09:02:49;101353.38;;;16.77;82.74
23241;BME280;11789;53.482;9.862;2023-07-20T09:05:15;101358.59;;;16.78;83.30
23241;BME280;11789;53.482;9.862;2023-07-20T09:07:41;101362.75;;;16.89;83.04
23241;BME280;11789;53.482;9.862;2023-07-20T09:10:07;101353.00;;;16.97;84.61
23241;BME280;11789;53.482;9.862;2023-07-20T09:12:40;101360.03;;;16.95;83.73
23241;BME280;11789;53.482;9.862;2023-07-20T09:15:06;101351.94;;;17.07;82.22
23241;BME280;11789;53.482;9.862;2023-07-20T09:17:32;101350.81;;;17.20;82.01
23241;BME280;11789;53.482;9.862;2023-07-20T09:19:58;101365.37;;;17.32;83.44
23241;BME280;11789;53.482;9.862;2023-07-20T09:22:30;101367.06;;;17.34;83.07
23241;BME280;11789;53.482;9.862;2023-07-20T09:24:56;101363.97;;;17.16;82.89
23241;BME280;11789;53.482;9.862;2023-07-20T09:27:34;101358.31;;;16.94;81.17
23241;BME280;11789;53.482;9.862;2023-07-20T09:30:01;101361.00;;;16.89;82.33
23241;BME280;11789;53.482;9.862;2023-07-20T09:32:27;101358.19;;;17.00;82.73
23241;BME280;11789;53.482;9.862;2023-07-20T09:34:52;101351.06;;;17.06;83.13
23241;BME280;11789;53.482;9.862;2023-07-20T09:37:21;101365.06;;;17.04;82.68
23241;BME280;11789;53.482;9.862;2023-07-20T09:39:53;101373.13;;;16.93;82.77
23241;BME280;11789;53.482;9.862;2023-07-20T09:42:20;101382.28;;;16.65;84.23
23241;BME280;11789;53.482;9.862;2023-07-20T09:44:46;101380.38;;;16.23;88.29
23241;BME280;11789;53.482;9.862;2023-07-20T09:47:12;101380.84;;;15.93;90.87
23241;BME280;11789;53.482;9.862;2023-07-20T09:49:40;101385.41;;;15.78;91.49
23241;BME280;11789;53.482;9.862;2023-07-20T09:52:08;101385.38;;;15.80;92.10
23241;BME280;11789;53.482;9.862;2023-07-20T09:54:39;101394.06;;;15.79;92.61
23241;BME280;11789;53.482;9.862;2023-07-20T09:57:08;101379.16;;;15.89;92.91
23241;BME280;11789;53.482;9.862;2023-07-20T09:59:34;101379.75;;;16.07;93.80
23241;BME280;11789;53.482;9.862;2023-07-20T10:02:01;101370.69;;;16.30;94.57
23241;BME280;11789;53.482;9.862;2023-07-20T10:04:30;101378.25;;;16.47;90.63
23241;BME280;11789;53.482;9.862;2023-07-20T10:06:55;101364.88;;;16.65;88.25
23241;BME280;11789;53.482;9.862;2023-07-20T10:09:24;101369.78;;;16.85;86.36
23241;BME280;11789;53.482;9.862;2023-07-20T10:11:52;101368.72;;;16.95;84.17
23241;BME280;11789;53.482;9.862;2023-07-20T10:14:20;101362.63;;;16.95;82.66
23241;BME280;11789;53.482;9.862;2023-07-20T10:16:55;101349.34;;;17.05;82.34
23241;BME280;11789;53.482;9.862;2023-07-20T10:19:27;101356.09;;;17.17;81.21
23241;BME280;11789;53.482;9.862;2023-07-20T10:22:25;101357.78;;;17.20;79.22
23241;BME280;11789;53.482;9.862;2023-07-20T10:24:48;101367.44;;;17.16;81.55
23241;BME280;11789;53.482;9.862;2023-07-20T10:27:14;101364.81;;;17.16;82.15
23241;BME280;11789;53.482;9.862;2023-07-20T10:29:41;101361.25;;;17.20;82.83
23241;BME280;11789;53.482;9.862;2023-07-20T10:32:08;101371.72;;;17.20;82.68
23241;BME280;11789;53.482;9.862;2023-07-20T10:34:34;101368.00;;;17.30;83.52
23241;BME280;11789;53.482;9.862;2023-07-20T10:36:59;101366.97;;;17.37;82.03
23241;BME280;11789;53.482;9.862;2023-07-20T10:39:31;101367.75;;;17.44;81.31
23241;BME280;11789;53.482;9.862;2023-07-20T10:42:07;101365.75;;;17.55;80.79
23241;BME280;11789;53.482;9.862;2023-07-20T10:44:33;101367.28;;;17.66;78.84
23241;BME280;11789;53.482;9.862;2023-07-20T10:47:06;101366.91;;;17.82;79.41
23241;BME280;11789;53.482;9.862;2023-07-20T10:49:34;101382.09;;;17.63;80.52
23241;BME280;11789;53.482;9.862;2023-07-20T10:52:04;101372.34;;;17.31;81.22
23241;BME280;11789;53.482;9.862;2023-07-20T10:57:22;101386.78;;;17.06;83.26
23241;BME280;11789;53.482;9.862;2023-07-20T10:59:48;101385.19;;;16.97;84.48
23241;BME280;11789;53.482;9.862;2023-07-20T11:02:18;101386.94;;;16.98;85.03
23241;BME280;11789;53.482;9.862;2023-07-20T11:04:45;101392.25;;;16.92;83.08
23241;BME280;11789;53.482;9.862;2023-07-20T11:07:15;101413.34;;;16.83;84.22
23241;BME280;11789;53.482;9.862;2023-07-20T11:09:41;101423.22;;;16.64;82.27
23241;BME280;11789;53.482;9.862;2023-07-20T11:12:15;101427.06;;;16.40;82.45
23241;BME280;11789;53.482;9.862;2023-07-20T11:14:54;101421.41;;;16.14;82.56
23241;BME280;11789;53.482;9.862;2023-07-20T11:17:20;101424.38;;;15.88;83.98
23241;BME280;11789;53.482;9.862;2023-07-20T11:19:55;101435.03;;;15.72;86.03
23241;BME280;11789;53.482;9.862;2023-07-20T11:22:21;101424.69;;;15.60;87.76
23241;BME280;11789;53.482;9.862;2023-07-20T11:24:47;101430.84;;;15.54;88.53
23241;BME280;11789;53.482;9.862;2023-07-20T11:27:14;101426.50;;;15.55;90.37
23241;BME280;11789;53.482;9.862;2023-07-20T11:29:40;101432.41;;;15.72;91.87
23241;BME280;11789;53.482;9.862;2023-07-20T11:32:06;101422.69;;;15.83;92.87
23241;BME280;11789;53.482;9.862;2023-07-20T11:34:32;101425.03;;;16.03;93.89
23241;BME280;11789;53.482;9.862;2023-07-20T11:36:58;101420.47;;;16.18;95.53
23241;BME280;11789;53.482;9.862;2023-07-20T11:39:24;101417.69;;;16.28;97.42
23241;BME280;11789;53.482;9.862;2023-07-20T11:41:52;101413.13;;;16.41;97.47
23241;BME280;11789;53.482;9.862;2023-07-20T11:44:19;101410.28;;;16.56;97.06
23241;BME280;11789;53.482;9.862;2023-07-20T11:46:46;101402.19;;;16.73;97.10
23241;BME280;11789;53.482;9.862;2023-07-20T11:49:12;101395.78;;;16.91;97.34
23241;BME280;11789;53.482;9.862;2023-07-20T11:51:39;101402.34;;;17.12;97.33
23241;BME280;11789;53.482;9.862;2023-07-20T11:54:07;101402.16;;;17.21;96.98
23241;BME280;11789;53.482;9.862;2023-07-20T11:56:32;101403.78;;;17.27;93.85
23241;BME280;11789;53.482;9.862;2023-07-20T11:58:59;101388.19;;;17.24;89.93
23241;BME280;11789;53.482;9.862;2023-07-20T12:01:27;101393.31;;;17.28;88.07
23241;BME280;11789;53.482;9.862;2023-07-20T12:04:01;101388.75;;;17.40;87.54
23241;BME280;11789;53.482;9.862;2023-07-20T12:06:28;101390.28;;;17.50;87.62
23241;BME280;11789;53.482;9.862;2023-07-20T12:08:57;101398.16;;;17.47;84.89
23241;BME280;11789;53.482;9.862;2023-07-20T12:11:35;101385.22;;;17.41;84.24
23241;BME280;11789;53.482;9.862;2023-07-20T12:14:02;101386.13;;;17.38;83.04
23241;BME280;11789;53.482;9.862;2023-07-20T12:16:29;101388.75;;;17.40;83.18
23241;BME280;11789;53.482;9.862;2023-07-20T12:19:13;101394.81;;;17.40;82.62
23241;BME280;11789;53.482;9.862;2023-07-20T12:21:40;101406.28;;;17.34;83.79
23241;BME280;11789;53.482;9.862;2023-07-20T12:24:07;101416.25;;;17.14;80.76
23241;BME280;11789;53.482;9.862;2023-07-20T12:26:34;101417.53;;;16.92;83.83
23241;BME280;11789;53.482;9.862;2023-07-20T12:29:00;101414.41;;;16.71;88.58
23241;BME280;11789;53.482;9.862;2023-07-20T12:31:29;101418.88;;;16.61;90.09
23241;BME280;11789;53.482;9.862;2023-07-20T12:33:56;101415.75;;;16.43;88.66
23241;BME280;11789;53.482;9.862;2023-07-20T12:36:22;101416.87;;;16.25;87.48
23241;BME280;11789;53.482;9.862;2023-07-20T12:38:48;101415.19;;;16.22;88.60
23241;BME280;11789;53.482;9.862;2023-07-20T12:41:14;101413.37;;;16.26;89.35
23241;BME280;11789;53.482;9.862;2023-07-20T12:43:43;101419.34;;;16.34;89.97
23241;BME280;11789;53.482;9.862;2023-07-20T12:46:10;101416.66;;;16.39;90.09
23241;BME280;11789;53.482;9.862;2023-07-20T12:48:36;101423.59;;;16.40;89.81
23241;BME280;11789;53.482;9.862;2023-07-20T12:51:03;101413.16;;;16.40;90.45